Terminal Aerodrome Forecast
Issued by NWS

Home | Current Version | Previous Version | Text Only | Print | Product List | Glossary On
Versions: 1 2 3 4 5 6 7 8 9 10 11 12 13 14 15
981
FTUS41 KBTV 061120
TAFRUT
TAF
KRUT 061120Z 0612/0712 02007KT P6SM BKN090
     FM061900 04009KT P6SM VCSH BKN070
     FM070000 12006KT P6SM VCSH BKN050
     FM070300 13004KT P6SM VCSH BKN030 OVC050
     FM070600 15008KT P6SM VCSH OVC015
     FM070900 15008KT P6SM OVC015
      AMD LTD TO CLD VIS AND WIND=

USA.gov is the U.S. government's official web portal to all federal, state and local government web resources and services.